Time;durP1;ratioP1;P1;durP2;ratioP2;P2;SDS_P1;SDS_P2;PMS_P1;PMS_P2;Temp;Humidity;BMP_temperature;BMP_pressure;BME280_temperature;BME280_humidity;BME280_pressure;Samples;Min_cycle;Max_cycle;Signal;HPM_P1;HPM_P2
2023/09/18 00:01:25;;;;;;;20.27;18.38;;;17.20;99.90;;;;;;4994600;28;20505;-71
2023/09/18 00:03:50;;;;;;;17.90;16.23;;;17.10;99.90;;;;;;4994304;28;20120;-71
2023/09/18 00:06:30;;;;;;;21.08;19.08;;;17.10;99.90;;;;;;4994356;28;20044;-71
2023/09/18 00:08:56;;;;;;;26.58;24.10;;;17.20;99.90;;;;;;4979606;28;20581;-71
2023/09/18 00:11:23;;;;;;;30.27;27.45;;;17.10;99.90;;;;;;4962181;28;20054;-70
2023/09/18 00:13:48;;;;;;;54.47;44.78;;;17.10;99.90;;;;;;4994195;28;20422;-71
2023/09/18 00:16:14;;;;;;;52.90;45.13;;;17.10;99.90;;;;;;4977724;28;20101;-70
2023/09/18 00:18:46;;;;;;;30.00;27.35;;;17.10;99.90;;;;;;4994068;28;20058;-72
2023/09/18 00:21:12;;;;;;;;;;;17.10;99.90;;;;;;4994401;28;20047;-71
2023/09/18 00:23:57;;;;;;;40.35;36.47;;;17.10;99.90;;;;;;4993830;28;19925;-72
2023/09/18 00:26:24;;;;;;;69.63;53.13;;;17.10;99.90;;;;;;4977899;28;20533;-72
2023/09/18 00:28:58;;;;;;;47.70;42.97;;;17.10;99.90;;;;;;4961927;28;20045;-71
2023/09/18 00:31:24;;;;;;;192.10;83.72;;;17.10;99.90;;;;;;4978019;28;20372;-72
2023/09/18 00:33:50;;;;;;;59.17;51.80;;;17.10;99.90;;;;;;4993782;28;20128;-71
2023/09/18 00:36:16;;;;;;;128.93;75.15;;;17.10;99.90;;;;;;4977343;28;20117;-72
2023/09/18 00:38:42;;;;;;;73.70;55.63;;;17.00;99.90;;;;;;4977618;28;20443;-71
2023/09/18 00:41:08;;;;;;;43.10;38.70;;;17.00;99.90;;;;;;4976283;28;20088;-71
2023/09/18 00:43:34;;;;;;;50.33;45.08;;;17.00;99.90;;;;;;4993784;28;20129;-71
2023/09/18 00:46:00;;;;;;;46.90;42.35;;;17.00;99.90;;;;;;4993705;28;20460;-72
2023/09/18 00:48:27;;;;;;;45.38;41.03;;;17.00;99.90;;;;;;4977423;28;20399;-71
2023/09/18 00:50:54;;;;;;;53.15;47.38;;;17.00;99.90;;;;;;4977305;28;20046;-73
2023/09/18 00:53:22;;;;;;;47.45;42.67;;;17.00;99.90;;;;;;4977172;28;20534;-73
2023/09/18 00:55:54;;;;;;;45.72;41.15;;;16.90;99.90;;;;;;4993566;28;20518;-71
2023/09/18 00:58:24;;;;;;;43.95;39.55;;;17.00;99.90;;;;;;4977257;28;20038;-70
2023/09/18 01:00:51;;;;;;;42.95;38.67;;;17.00;99.90;;;;;;4977298;28;20047;-72
2023/09/18 01:03:21;;;;;;;33.65;30.52;;;16.90;99.90;;;;;;4977769;28;20042;-71
2023/09/18 01:05:47;;;;;;;27.60;25.20;;;16.90;99.90;;;;;;4993458;28;20398;-72
2023/09/18 01:08:12;;;;;;;33.33;30.23;;;16.90;99.90;;;;;;4994246;28;20117;-71
2023/09/18 01:10:49;;;;;;;41.25;36.92;;;16.80;99.90;;;;;;4976963;28;20041;-71
2023/09/18 01:13:23;;;;;;;42.58;38.40;;;16.80;99.90;;;;;;4976857;28;20054;-71
2023/09/18 01:15:56;;;;;;;51.72;45.63;;;16.80;99.90;;;;;;4992860;28;20049;-71
2023/09/18 01:18:22;;;;;;;43.28;39.08;;;16.70;99.90;;;;;;4976567;28;20046;-73
2023/09/18 01:20:48;;;;;;;33.95;30.75;;;16.70;99.90;;;;;;4992739;28;20129;-72
2023/09/18 01:23:14;;;;;;;38.05;34.45;;;16.70;99.90;;;;;;4977006;28;20085;-71
2023/09/18 01:25:40;;;;;;;35.30;31.70;;;16.70;99.90;;;;;;4976537;28;20077;-71
2023/09/18 01:28:05;;;;;;;29.88;27.02;;;16.70;99.90;;;;;;4976823;28;20128;-71
2023/09/18 01:30:31;;;;;;;30.60;27.80;;;16.60;99.90;;;;;;4992948;28;20089;-71
2023/09/18 01:33:09;;;;;;;20.85;18.95;;;16.70;99.90;;;;;;4976420;28;20043;-72
2023/09/18 01:35:36;;;;;;;26.63;24.23;;;16.70;99.90;;;;;;4976411;28;20121;-72
2023/09/18 01:38:03;;;;;;;20.67;18.58;;;16.60;99.90;;;;;;4992914;28;20042;-71
2023/09/18 01:40:33;;;;;;;18.08;16.40;;;16.70;99.90;;;;;;4992710;28;20050;-72
2023/09/18 01:43:02;;;;;;;19.48;17.77;;;16.70;99.90;;;;;;4992695;28;20041;-66
2023/09/18 01:45:29;;;;;;;31.42;28.42;;;16.70;99.90;;;;;;4992490;28;20077;-66
2023/09/18 01:47:58;;;;;;;33.55;30.30;;;16.70;99.90;;;;;;4960947;28;20042;-69
2023/09/18 01:50:24;;;;;;;32.58;29.35;;;16.80;99.90;;;;;;4976446;28;20522;-65
2023/09/18 01:52:50;;;;;;;34.33;30.95;;;16.80;99.90;;;;;;4991763;28;20098;-66
2023/09/18 01:55:16;;;;;;;32.22;28.92;;;16.80;99.90;;;;;;4976402;28;20049;-66
2023/09/18 01:57:42;;;;;;;27.75;25.15;;;16.70;99.90;;;;;;4993645;28;20542;-67
2023/09/18 02:00:09;;;;;;;35.85;32.38;;;16.60;99.90;;;;;;4976416;28;20054;-73
2023/09/18 02:02:38;;;;;;;35.30;31.85;;;16.60;99.90;;;;;;4992731;28;20042;-66
2023/09/18 02:05:04;;;;;;;33.10;29.92;;;16.70;99.90;;;;;;4992662;28;20043;-66
2023/09/18 02:07:31;;;;;;;36.58;33.08;;;16.60;99.90;;;;;;4976198;28;20038;-66
2023/09/18 02:09:57;;;;;;;35.78;32.42;;;16.70;99.90;;;;;;4976640;28;20042;-66
2023/09/18 02:12:23;;;;;;;37.72;33.97;;;16.70;99.90;;;;;;4992209;28;20100;-69
2023/09/18 02:14:48;;;;;;;33.75;30.42;;;16.70;99.90;;;;;;4992705;28;20100;-67
2023/09/18 02:17:14;;;;;;;35.78;32.30;;;16.80;99.90;;;;;;4992145;28;20046;-67
2023/09/18 02:19:41;;;;;;;37.55;33.95;;;16.80;99.90;;;;;;4976097;28;20054;-66
2023/09/18 02:22:07;;;;;;;38.33;34.45;;;16.90;99.90;;;;;;4976308;28;20042;-67
2023/09/18 02:24:33;;;;;;;36.97;33.47;;;16.90;99.90;;;;;;4992261;28;20045;-67
2023/09/18 02:26:59;;;;;;;37.72;34.03;;;16.90;99.90;;;;;;4993562;28;20039;-67
2023/09/18 02:29:25;;;;;;;35.50;31.90;;;16.90;99.90;;;;;;4976220;28;20050;-66
2023/09/18 02:31:50;;;;;;;36.00;32.38;;;16.90;99.90;;;;;;4992449;28;20097;-66
2023/09/18 02:34:18;;;;;;;36.90;33.20;;;16.90;99.90;;;;;;4991942;28;20105;-67
2023/09/18 02:36:43;;;;;;;35.40;31.98;;;16.90;99.90;;;;;;4976162;28;20432;-66
2023/09/18 02:39:17;;;;;;;34.42;30.92;;;16.90;99.90;;;;;;4976064;28;20042;-65
2023/09/18 02:41:42;;;;;;;34.40;31.00;;;16.90;99.90;;;;;;4959897;28;20046;-66
2023/09/18 02:44:09;;;;;;;35.70;32.10;;;17.00;99.90;;;;;;4975831;28;20061;-65
2023/09/18 02:46:36;;;;;;;32.92;29.73;;;17.00;99.90;;;;;;4959816;28;20085;-66
2023/09/18 02:49:02;;;;;;;32.80;29.65;;;16.90;99.90;;;;;;4992384;28;20538;-65
2023/09/18 02:51:29;;;;;;;32.33;29.23;;;16.90;99.90;;;;;;4992011;28;20082;-65
2023/09/18 02:53:54;;;;;;;30.33;27.13;;;16.90;99.90;;;;;;4960063;28;20104;-72
2023/09/18 02:56:21;;;;;;;30.67;27.73;;;16.90;99.90;;;;;;4976139;28;20069;-71
2023/09/18 02:58:47;;;;;;;31.67;28.48;;;17.00;99.90;;;;;;4959977;28;20054;-71
2023/09/18 03:01:13;;;;;;;29.88;26.70;;;17.00;99.90;;;;;;4974979;28;20101;-71
2023/09/18 03:03:41;;;;;;;28.95;26.10;;;16.90;99.90;;;;;;4976284;28;20483;-70
2023/09/18 03:06:07;;;;;;;29.73;26.00;;;16.90;99.90;;;;;;4995856;28;20569;-71
2023/09/18 03:08:34;;;;;;;30.05;26.85;;;17.00;99.90;;;;;;4995629;28;20050;-70
2023/09/18 03:11:00;;;;;;;29.58;26.48;;;17.00;99.90;;;;;;4979160;28;20049;-71
2023/09/18 03:13:28;;;;;;;27.33;24.63;;;17.10;99.90;;;;;;4995258;28;20050;-71
2023/09/18 03:15:56;;;;;;;29.08;26.20;;;17.10;99.90;;;;;;4995462;28;20514;-72
2023/09/18 03:18:22;;;;;;;29.27;26.27;;;17.10;99.90;;;;;;4995084;28;20050;-71
2023/09/18 03:20:51;;;;;;;29.15;26.25;;;17.10;99.90;;;;;;4978880;28;20077;-72
2023/09/18 03:23:17;;;;;;;27.95;24.95;;;17.00;99.90;;;;;;4979310;28;20130;-71
2023/09/18 03:25:43;;;;;;;27.45;24.65;;;17.00;99.90;;;;;;4979223;28;20074;-71
2023/09/18 03:28:09;;;;;;;27.70;24.95;;;17.00;99.90;;;;;;4979005;28;20050;-71
2023/09/18 03:30:36;;;;;;;25.77;23.20;;;17.00;99.90;;;;;;4996565;28;20046;-72
2023/09/18 03:33:02;;;;;;;27.42;24.65;;;17.00;99.90;;;;;;4995219;28;20050;-70
2023/09/18 03:35:31;;;;;;;28.05;25.10;;;17.00;99.90;;;;;;4979301;28;20047;-71
2023/09/18 03:37:56;;;;;;;30.33;27.08;;;17.10;99.90;;;;;;4995122;28;20145;-72
2023/09/18 03:40:23;;;;;;;29.60;26.45;;;17.10;99.90;;;;;;4979008;28;20042;-71
2023/09/18 03:43:07;;;;;;;28.55;24.70;;;17.10;99.90;;;;;;4996194;28;20038;-71
2023/09/18 03:45:33;;;;;;;25.52;23.02;;;17.10;99.90;;;;;;4994824;28;20073;-70
2023/09/18 03:47:59;;;;;;;26.25;23.65;;;17.10;99.90;;;;;;4994708;28;20537;-71
2023/09/18 03:50:27;;;;;;;25.95;23.25;;;17.00;99.90;;;;;;4962914;28;20085;-71
2023/09/18 03:52:52;;;;;;;24.77;22.23;;;17.10;99.90;;;;;;4978551;28;20078;-72
2023/09/18 03:55:18;;;;;;;27.42;24.63;;;17.20;99.90;;;;;;4994585;28;20136;-72
2023/09/18 03:57:45;;;;;;;23.88;21.30;;;17.10;99.90;;;;;;4994738;28;20046;-71
2023/09/18 04:00:16;;;;;;;24.92;22.42;;;17.10;99.90;;;;;;4994668;28;20046;-71
2023/09/18 04:02:41;;;;;;;27.70;24.60;;;17.00;99.90;;;;;;4962922;28;20096;-65
2023/09/18 04:05:07;;;;;;;24.95;22.33;;;17.10;99.90;;;;;;4962105;28;20069;-66
2023/09/18 04:07:33;;;;;;;29.45;26.02;;;17.10;99.90;;;;;;4994243;28;20046;-64
2023/09/18 04:10:10;;;;;;;24.38;21.88;;;17.10;99.90;;;;;;4994272;28;20034;-66
2023/09/18 04:12:36;;;;;;;24.27;21.83;;;17.10;99.90;;;;;;4994580;28;20602;-66
2023/09/18 04:15:11;;;;;;;23.27;20.98;;;17.00;99.90;;;;;;4995269;28;20113;-65
2023/09/18 04:17:38;;;;;;;28.13;25.25;;;17.00;99.90;;;;;;4994147;28;20053;-65
2023/09/18 04:20:04;;;;;;;24.25;21.75;;;17.00;99.90;;;;;;4994233;28;20121;-65
2023/09/18 04:22:30;;;;;;;24.20;21.63;;;17.00;99.90;;;;;;4994075;28;20128;-65
2023/09/18 04:24:55;;;;;;;23.77;21.40;;;17.00;99.90;;;;;;4994114;28;20074;-66
2023/09/18 04:27:21;;;;;;;24.75;22.17;;;17.00;99.90;;;;;;4994295;28;20045;-66
2023/09/18 04:29:47;;;;;;;23.48;20.88;;;17.00;99.90;;;;;;4977649;28;20069;-66
2023/09/18 04:32:19;;;;;;;22.88;20.55;;;17.00;99.90;;;;;;4994149;28;20399;-65
2023/09/18 04:34:45;;;;;;;22.50;20.13;;;17.00;99.90;;;;;;4963052;28;20106;-66
2023/09/18 04:37:17;;;;;;;23.50;20.48;;;17.20;99.90;;;;;;4994890;28;20137;-66
2023/09/18 04:39:43;;;;;;;;;;;17.20;99.90;;;;;;4977755;28;20057;-66
2023/09/18 04:42:08;;;;;;;19.17;17.17;;;17.20;99.90;;;;;;4977695;28;20347;-66
2023/09/18 04:44:53;;;;;;;21.40;19.20;;;17.20;99.90;;;;;;4993734;28;20475;-66
2023/09/18 04:47:19;;;;;;;20.08;17.25;;;17.20;99.90;;;;;;4993462;28;20104;-66
2023/09/18 04:49:47;;;;;;;21.33;17.92;;;17.30;99.90;;;;;;4977425;28;20042;-65
2023/09/18 04:52:13;;;;;;;22.13;18.27;;;17.40;99.90;;;;;;4994913;28;20050;-64
2023/09/18 04:54:39;;;;;;;20.65;18.20;;;17.50;99.90;;;;;;4993426;28;20065;-65
2023/09/18 04:57:05;;;;;;;21.00;17.67;;;17.50;99.90;;;;;;4993575;28;20511;-65
2023/09/18 04:59:31;;;;;;;19.25;17.10;;;17.60;99.90;;;;;;4993174;28;20078;-65
2023/09/18 05:01:57;;;;;;;18.48;16.48;;;17.60;99.90;;;;;;4993244;28;20068;-65
2023/09/18 05:04:23;;;;;;;19.60;16.75;;;17.70;99.90;;;;;;4977141;28;20128;-65
2023/09/18 05:06:49;;;;;;;19.25;16.20;;;17.70;99.90;;;;;;4977399;28;20130;-65
2023/09/18 05:09:15;;;;;;;18.35;14.85;;;17.80;99.90;;;;;;4960792;28;20046;-68
2023/09/18 05:11:41;;;;;;;18.00;14.82;;;17.90;99.90;;;;;;4977185;28;20459;-65
2023/09/18 05:14:10;;;;;;;18.27;14.95;;;18.00;99.90;;;;;;4976838;28;20081;-65
2023/09/18 05:16:36;;;;;;;16.10;14.38;;;18.00;99.90;;;;;;4977090;28;20042;-66
2023/09/18 05:19:02;;;;;;;15.65;13.50;;;18.00;99.90;;;;;;4976823;28;20129;-65
2023/09/18 05:21:28;;;;;;;15.77;12.90;;;18.10;99.90;;;;;;4993153;28;20074;-66
2023/09/18 05:23:54;;;;;;;14.68;12.63;;;18.10;99.90;;;;;;4976824;28;20046;-66
2023/09/18 05:26:23;;;;;;;17.38;13.13;;;18.20;99.90;;;;;;4992091;28;20043;-66
2023/09/18 05:28:50;;;;;;;16.17;12.88;;;18.30;99.90;;;;;;4992944;28;20121;-66
2023/09/18 05:31:15;;;;;;;16.15;12.68;;;18.30;99.90;;;;;;4961057;28;20046;-66
2023/09/18 05:33:41;;;;;;;18.27;13.40;;;18.30;99.90;;;;;;4992636;28;20088;-66
2023/09/18 05:36:07;;;;;;;16.40;13.27;;;18.30;99.90;;;;;;4976609;28;20049;-66
2023/09/18 05:38:33;;;;;;;15.40;13.15;;;18.30;99.90;;;;;;4960366;28;20050;-66
2023/09/18 05:40:59;;;;;;;16.75;13.00;;;18.30;99.90;;;;;;4992535;28;20042;-66
2023/09/18 05:43:24;;;;;;;12.93;11.55;;;18.30;99.90;;;;;;4992871;28;20034;-66
2023/09/18 05:45:50;;;;;;;16.38;12.85;;;18.30;99.90;;;;;;4976706;28;20103;-65
2023/09/18 05:48:16;;;;;;;16.58;13.25;;;18.30;99.90;;;;;;4976563;28;20406;-66
2023/09/18 05:50:42;;;;;;;14.85;12.15;;;18.40;99.90;;;;;;4992705;28;20046;-66
2023/09/18 05:53:08;;;;;;;15.82;11.95;;;18.30;99.90;;;;;;4976316;28;20065;-65
2023/09/18 05:55:34;;;;;;;13.63;10.95;;;18.40;99.90;;;;;;4976424;28;20042;-66
2023/09/18 05:58:01;;;;;;;16.38;11.80;;;18.40;99.90;;;;;;4960225;28;20101;-66
2023/09/18 06:00:27;;;;;;;14.20;11.05;;;18.40;99.90;;;;;;4993645;28;20077;-66
2023/09/18 06:02:53;;;;;;;14.27;10.48;;;18.50;99.90;;;;;;4992404;28;20034;-65
2023/09/18 06:05:22;;;;;;;15.02;10.93;;;18.60;99.90;;;;;;4992336;28;20034;-66
2023/09/18 06:07:49;;;;;;;14.80;11.27;;;18.60;99.90;;;;;;4977002;28;20048;-65
2023/09/18 06:10:15;;;;;;;13.02;10.20;;;18.60;99.90;;;;;;4976383;28;20042;-66
2023/09/18 06:12:41;;;;;;;15.95;10.40;;;18.70;99.90;;;;;;4976496;28;20478;-64
2023/09/18 06:15:11;;;;;;;14.38;10.23;;;18.70;99.90;;;;;;4976605;28;20041;-66
2023/09/18 06:17:42;;;;;;;16.65;10.35;;;18.80;99.90;;;;;;4976039;28;20038;-65
2023/09/18 06:20:10;;;;;;;15.52;10.55;;;18.70;99.90;;;;;;4992135;28;20046;-66
2023/09/18 06:22:40;;;;;;;16.52;11.05;;;18.70;99.90;;;;;;4992555;28;20069;-71
2023/09/18 06:25:13;;;;;;;15.60;12.00;;;18.80;99.90;;;;;;4992350;28;20046;-70
2023/09/18 06:27:39;;;;;;;16.13;11.15;;;18.80;99.90;;;;;;4976319;28;20039;-71
2023/09/18 06:30:10;;;;;;;17.80;11.50;;;18.70;99.90;;;;;;4976643;28;20038;-70
2023/09/18 06:32:37;;;;;;;18.30;11.75;;;18.70;99.90;;;;;;4976292;28;20069;-71
2023/09/18 06:35:03;;;;;;;17.58;12.05;;;18.70;99.90;;;;;;4992094;28;20147;-70
2023/09/18 06:37:29;;;;;;;19.48;12.30;;;18.80;99.90;;;;;;4992489;28;20043;-70
2023/09/18 06:39:56;;;;;;;15.90;11.52;;;18.70;99.90;;;;;;4995759;28;20408;-70
2023/09/18 06:42:23;;;;;;;15.15;11.60;;;18.70;99.90;;;;;;4996148;28;20089;-70
2023/09/18 06:44:48;;;;;;;16.15;12.13;;;18.80;99.90;;;;;;4963821;28;20046;-69
2023/09/18 06:47:26;;;;;;;16.58;12.68;;;18.80;99.90;;;;;;4995999;28;20038;-70
2023/09/18 06:49:52;;;;;;;16.52;13.13;;;18.70;99.90;;;;;;4980350;28;20046;-70
2023/09/18 06:52:18;;;;;;;18.67;12.70;;;18.70;99.90;;;;;;4996069;28;20042;-70
2023/09/18 06:54:44;;;;;;;17.67;12.55;;;18.70;99.90;;;;;;4963240;28;20529;-70
2023/09/18 06:57:23;;;;;;;16.98;12.40;;;18.70;99.90;;;;;;4979590;28;20578;-70
2023/09/18 07:00:09;;;;;;;19.88;12.32;;;18.70;99.90;;;;;;4964411;28;20562;-70
2023/09/18 07:02:35;;;;;;;19.20;12.88;;;18.70;99.90;;;;;;4996509;28;20046;-70
2023/09/18 07:05:01;;;;;;;17.48;12.50;;;18.70;99.90;;;;;;4995353;28;20516;-69
2023/09/18 07:07:27;;;;;;;20.08;13.75;;;18.70;99.90;;;;;;4996751;28;20499;-70
2023/09/18 07:09:53;;;;;;;17.88;12.93;;;18.80;99.90;;;;;;4979332;28;20054;-70
2023/09/18 07:12:19;;;;;;;17.52;13.45;;;18.80;99.90;;;;;;4968237;28;20141;-69
2023/09/18 07:14:48;;;;;;;16.20;12.73;;;18.70;99.90;;;;;;4979431;28;20081;-69
2023/09/18 07:17:14;;;;;;;25.65;15.63;;;18.80;99.90;;;;;;4995435;28;20053;-69
2023/09/18 07:19:39;;;;;;;20.63;14.90;;;18.80;99.90;;;;;;4956730;28;20058;-70
2023/09/18 07:22:08;;;;;;;21.45;15.52;;;18.80;99.90;;;;;;4963074;28;20042;-70
2023/09/18 07:24:34;;;;;;;15.25;13.20;;;18.80;99.90;;;;;;4963228;28;20058;-70
2023/09/18 07:27:00;;;;;;;18.77;16.00;;;18.80;99.90;;;;;;4995211;28;20250;-69
2023/09/18 07:29:26;;;;;;;20.30;16.15;;;18.80;99.90;;;;;;4978853;28;20042;-69
2023/09/18 07:31:55;;;;;;;19.02;16.23;;;18.80;99.90;;;;;;4979332;28;20046;-70
2023/09/18 07:34:21;;;;;;;22.52;19.00;;;18.90;99.90;;;;;;4962552;28;20039;-69
2023/09/18 07:36:47;;;;;;;19.77;17.25;;;18.90;99.90;;;;;;4996135;28;20093;-68
2023/09/18 07:39:12;;;;;;;22.00;17.50;;;18.90;99.90;;;;;;4995983;28;20450;-69
2023/09/18 07:41:39;;;;;;;22.98;18.80;;;19.00;99.90;;;;;;4996251;28;20052;-70
2023/09/18 07:44:05;;;;;;;23.00;19.73;;;19.10;99.90;;;;;;4978479;28;20042;-70
2023/09/18 07:46:31;;;;;;;21.55;19.05;;;19.10;99.90;;;;;;4994600;28;20045;-69
2023/09/18 07:48:58;;;;;;;22.05;18.65;;;19.20;99.90;;;;;;4978448;28;20041;-69
2023/09/18 07:51:24;;;;;;;25.80;19.67;;;19.20;99.90;;;;;;4985306;28;20053;-69
2023/09/18 07:53:49;;;;;;;22.35;18.27;;;19.30;99.90;;;;;;4994733;28;20062;-70
2023/09/18 07:56:15;;;;;;;19.63;16.88;;;19.30;99.90;;;;;;4978561;28;20538;-69
2023/09/18 07:58:46;;;;;;;22.48;18.75;;;19.40;99.90;;;;;;5003152;28;20095;-69
2023/09/18 08:01:12;;;;;;;22.08;19.15;;;19.50;99.90;;;;;;4998422;28;20482;-69
2023/09/18 08:03:38;;;;;;;23.58;19.25;;;19.50;99.90;;;;;;5014270;28;20052;-70
2023/09/18 08:06:04;;;;;;;22.13;19.67;;;19.60;99.90;;;;;;4997801;28;20038;-72
2023/09/18 08:08:32;;;;;;;24.73;20.60;;;19.60;99.90;;;;;;5014313;28;20482;-69
2023/09/18 08:11:10;;;;;;;22.93;19.27;;;19.60;99.90;;;;;;5013996;28;20053;-69
2023/09/18 08:13:42;;;;;;;27.15;22.35;;;19.70;99.90;;;;;;5013951;28;20092;-70
2023/09/18 08:16:12;;;;;;;25.60;21.75;;;19.60;99.90;;;;;;4997374;28;20042;-71
2023/09/18 08:18:41;;;;;;;20.80;18.50;;;19.70;99.90;;;;;;5013459;28;20045;-70
2023/09/18 08:21:09;;;;;;;23.85;21.15;;;19.70;99.90;;;;;;5014815;28;20485;-70
2023/09/18 08:23:36;;;;;;;23.98;19.58;;;19.70;99.90;;;;;;5013805;28;20038;-71
2023/09/18 08:26:03;;;;;;;20.98;17.83;;;19.70;99.90;;;;;;5013638;28;20049;-71
2023/09/18 08:28:33;;;;;;;19.60;17.00;;;19.70;99.90;;;;;;5013833;28;20052;-71
2023/09/18 08:31:01;;;;;;;18.08;15.93;;;19.70;99.90;;;;;;5013558;28;20491;-70
2023/09/18 08:33:26;;;;;;;17.63;15.20;;;19.70;99.90;;;;;;4981263;28;20046;-70
2023/09/18 08:35:52;;;;;;;19.95;17.05;;;19.60;99.90;;;;;;4997262;28;20053;-70
2023/09/18 08:38:18;;;;;;;19.80;17.10;;;19.70;99.90;;;;;;5013432;28;20048;-70
2023/09/18 08:40:44;;;;;;;24.08;19.83;;;19.60;99.90;;;;;;5015082;28;20045;-70
2023/09/18 08:43:14;;;;;;;23.83;19.70;;;19.70;99.90;;;;;;5013728;28;20038;-70
2023/09/18 08:46:01;;;;;;;19.40;16.58;;;19.70;99.90;;;;;;5014322;28;20046;-70
2023/09/18 08:48:34;;;;;;;24.20;19.50;;;19.80;99.90;;;;;;5014831;28;20053;-68
2023/09/18 08:51:05;;;;;;;20.58;16.38;;;19.70;99.90;;;;;;4983087;28;20490;-70
2023/09/18 08:53:33;;;;;;;20.70;17.27;;;19.80;99.90;;;;;;5013218;28;20061;-66
2023/09/18 08:56:04;;;;;;;19.63;17.15;;;19.80;99.90;;;;;;5013260;28;20320;-66
2023/09/18 08:58:37;;;;;;;21.77;18.45;;;19.80;99.90;;;;;;5013148;28;20030;-66
2023/09/18 09:01:09;;;;;;;22.55;17.85;;;19.80;99.90;;;;;;5012128;28;20324;-66
2023/09/18 09:03:42;;;;;;;22.48;17.50;;;19.90;99.90;;;;;;5013248;28;20044;-66
2023/09/18 09:06:09;;;;;;;21.90;17.55;;;19.90;99.90;;;;;;5013417;28;20045;-66
2023/09/18 09:08:36;;;;;;;22.35;17.98;;;19.90;99.90;;;;;;5014076;28;20042;-65
2023/09/18 09:11:03;;;;;;;22.63;17.77;;;20.00;99.90;;;;;;5013454;28;20050;-66
2023/09/18 09:13:29;;;;;;;20.95;18.02;;;20.10;99.90;;;;;;5012704;28;20046;-65
2023/09/18 09:15:57;;;;;;;20.05;16.80;;;20.10;99.90;;;;;;5012867;28;20046;-66
2023/09/18 09:18:24;;;;;;;22.33;17.77;;;20.20;99.90;;;;;;5012664;28;20096;-67
2023/09/18 09:21:01;;;;;;;19.88;17.08;;;20.20;99.90;;;;;;5012834;28;20096;-64
2023/09/18 09:23:28;;;;;;;20.40;17.58;;;20.20;99.90;;;;;;5012782;28;20038;-67
2023/09/18 09:26:12;;;;;;;17.95;15.32;;;20.30;99.90;;;;;;5012613;28;20093;-64
2023/09/18 09:28:38;;;;;;;17.52;15.55;;;20.30;99.90;;;;;;5012973;28;20513;-65
2023/09/18 09:31:05;;;;;;;19.80;16.80;;;20.50;99.90;;;;;;5012480;28;20080;-65
2023/09/18 09:33:31;;;;;;;16.95;14.15;;;20.60;99.90;;;;;;5012722;28;20058;-66
2023/09/18 09:35:58;;;;;;;17.63;13.60;;;20.70;99.90;;;;;;5012598;28;20042;-66
2023/09/18 09:38:32;;;;;;;14.88;12.48;;;20.70;99.90;;;;;;5013727;28;20104;-65
2023/09/18 09:40:59;;;;;;;16.27;13.18;;;20.70;99.90;;;;;;5012307;28;20042;-66
2023/09/18 09:43:26;;;;;;;14.52;12.60;;;20.70;99.90;;;;;;4979956;28;20037;-66
2023/09/18 09:45:58;;;;;;;14.15;12.18;;;20.70;99.90;;;;;;5012217;28;20042;-65
2023/09/18 09:48:25;;;;;;;15.98;12.02;;;20.80;99.90;;;;;;5011541;28;20534;-65
2023/09/18 09:50:51;;;;;;;14.40;11.30;;;20.90;99.90;;;;;;5012166;28;20085;-66
2023/09/18 09:53:18;;;;;;;15.38;10.95;;;21.00;99.90;;;;;;5012019;28;20112;-69
2023/09/18 09:55:44;;;;;;;13.07;10.80;;;21.10;99.90;;;;;;4995568;28;20054;-69
2023/09/18 09:58:13;;;;;;;14.98;10.60;;;21.10;99.90;;;;;;5012214;28;20103;-71
2023/09/18 10:00:54;;;;;;;14.55;9.88;;;21.30;99.90;;;;;;5012163;28;20121;-70
2023/09/18 10:03:23;;;;;;;11.50;8.98;;;21.40;99.90;;;;;;5013296;28;20034;-69
2023/09/18 10:05:56;;;;;;;12.45;8.88;;;21.60;99.90;;;;;;5012108;28;20042;-70
2023/09/18 10:08:30;;;;;;;10.05;8.23;;;21.60;99.90;;;;;;4996646;28;20081;-71
2023/09/18 10:11:07;;;;;;;10.88;8.77;;;21.60;99.90;;;;;;5012466;28;20103;-69
2023/09/18 10:13:49;;;;;;;11.60;7.60;;;21.50;99.90;;;;;;5014067;28;20041;-71
2023/09/18 10:16:28;;;;;;;10.02;8.30;;;21.50;99.90;;;;;;4999831;28;20100;-70
2023/09/18 10:19:14;;;;;;;10.02;7.22;;;21.40;99.90;;;;;;5017337;28;20065;-69
2023/09/18 10:22:05;;;;;;;11.82;7.53;;;21.40;99.90;;;;;;5000613;28;20056;-70
2023/09/18 10:24:41;;;;;;;11.05;7.18;;;21.40;99.90;;;;;;5016020;28;20038;-70
2023/09/18 10:27:26;;;;;;;10.07;6.75;;;21.60;99.90;;;;;;5016017;28;20482;-70
2023/09/18 10:29:55;;;;;;;8.63;6.25;;;21.70;99.90;;;;;;5016006;28;20042;-72
2023/09/18 10:32:22;;;;;;;10.77;6.10;;;21.70;99.90;;;;;;5015569;28;20053;-70
2023/09/18 10:34:54;;;;;;;8.27;6.10;;;21.70;99.90;;;;;;5016042;28;20073;-70
2023/09/18 10:37:24;;;;;;;10.35;5.93;;;21.80;99.90;;;;;;5000342;28;20096;-69
2023/09/18 10:39:52;;;;;;;8.30;5.70;;;21.90;99.90;;;;;;5016775;28;20133;-70
2023/09/18 10:42:21;;;;;;;8.93;5.80;;;22.10;99.90;;;;;;5015403;28;20048;-70
2023/09/18 10:44:47;;;;;;;9.88;5.43;;;22.10;99.90;;;;;;5015454;28;20121;-71
2023/09/18 10:47:14;;;;;;;8.20;5.50;;;22.30;99.90;;;;;;5016999;28;20096;-69
2023/09/18 10:49:40;;;;;;;10.38;5.65;;;22.50;99.90;;;;;;5015574;28;20060;-71
2023/09/18 10:52:12;;;;;;;9.52;5.47;;;22.60;99.90;;;;;;5015297;28;20046;-70
2023/09/18 10:54:45;;;;;;;8.40;5.18;;;22.60;99.90;;;;;;4999560;28;20057;-70
2023/09/18 10:57:11;;;;;;;9.90;5.20;;;22.60;99.90;;;;;;4983404;28;20048;-70
2023/09/18 10:59:47;;;;;;;8.20;5.10;;;22.60;99.90;;;;;;4982703;28;20042;-70
2023/09/18 11:02:17;;;;;;;8.48;5.00;;;22.60;99.90;;;;;;5016386;28;20056;-70
2023/09/18 11:04:44;;;;;;;7.05;4.30;;;22.60;99.90;;;;;;5016470;28;20046;-71
2023/09/18 11:07:20;;;;;;;8.38;4.50;;;22.80;99.90;;;;;;4998908;28;20037;-71
2023/09/18 11:09:46;;;;;;;6.88;3.90;;;22.90;99.90;;;;;;5015502;28;20486;-72
2023/09/18 11:12:15;;;;;;;5.97;3.70;;;22.90;99.90;;;;;;5014944;28;20048;-70
2023/09/18 11:15:00;;;;;;;6.57;3.45;;;22.90;99.90;;;;;;5014932;28;20069;-70
2023/09/18 11:17:33;;;;;;;7.55;3.30;;;23.00;99.90;;;;;;4998639;28;20124;-70
2023/09/18 11:20:25;;;;;;;6.57;3.50;;;23.10;99.90;;;;;;4998485;28;20041;-71
2023/09/18 11:23:12;;;;;;;7.65;3.85;;;23.20;99.90;;;;;;5014689;28;20180;-70
2023/09/18 11:25:41;;;;;;;7.40;3.30;;;23.20;99.90;;;;;;5013789;28;20121;-71
2023/09/18 11:28:19;;;;;;;6.75;3.33;;;23.20;99.90;;;;;;4999006;28;20132;-70
2023/09/18 11:31:00;;;;;;;6.97;3.05;;;23.30;99.90;;;;;;5014845;28;20104;-71
2023/09/18 11:33:38;;;;;;;7.30;3.70;;;23.20;99.90;;;;;;5014560;28;20128;-69
2023/09/18 11:36:18;;;;;;;5.85;3.30;;;22.90;99.90;;;;;;5014868;28;20046;-70
2023/09/18 11:39:04;;;;;;;5.68;3.00;;;22.90;99.90;;;;;;5014351;28;20119;-71
2023/09/18 11:41:32;;;;;;;6.82;2.80;;;23.00;99.90;;;;;;5014701;28;20045;-70
2023/09/18 11:44:11;;;;;;;7.57;2.90;;;23.10;99.90;;;;;;4998313;28;20045;-70
2023/09/18 11:46:39;;;;;;;6.72;3.05;;;23.30;99.90;;;;;;5015762;28;20038;-70
2023/09/18 11:49:09;;;;;;;5.78;3.00;;;23.40;99.90;;;;;;5014339;28;20081;-70
2023/09/18 11:51:37;;;;;;;5.40;2.70;;;23.50;99.90;;;;;;4998314;28;20092;-71
2023/09/18 11:54:05;;;;;;;6.13;2.70;;;23.40;99.90;;;;;;4997733;28;20133;-70
2023/09/18 11:56:33;;;;;;;6.63;2.70;;;23.50;99.90;;;;;;5014095;28;20085;-71
2023/09/18 11:58:59;;;;;;;6.53;2.83;;;23.50;99.90;;;;;;5014062;28;20034;-70
2023/09/18 12:01:26;;;;;;;7.85;2.33;;;23.50;99.90;;;;;;5014154;28;20121;-71
2023/09/18 12:03:54;;;;;;;7.93;2.90;;;23.50;99.90;;;;;;4997931;28;20536;-71
2023/09/18 12:06:24;;;;;;;7.07;2.72;;;23.60;99.90;;;;;;5015089;28;20048;-70
2023/09/18 12:08:53;;;;;;;6.07;2.42;;;23.50;99.90;;;;;;5014136;28;20050;-71
2023/09/18 12:11:20;;;;;;;5.18;2.55;;;23.60;99.90;;;;;;5013842;28;20042;-70
2023/09/18 12:13:53;;;;;;;6.55;2.53;;;23.70;99.90;;;;;;5014033;28;20046;-65
2023/09/18 12:16:22;;;;;;;8.25;2.60;;;23.90;99.90;;;;;;4997598;28;20125;-65
2023/09/18 12:18:49;;;;;;;7.32;2.70;;;23.90;99.90;;;;;;4981041;28;20181;-64
2023/09/18 12:21:16;;;;;;;6.15;2.58;;;23.70;99.90;;;;;;5013916;28;20056;-65
2023/09/18 12:23:44;;;;;;;5.95;2.67;;;23.60;99.90;;;;;;5013517;28;20053;-65
2023/09/18 12:26:14;;;;;;;6.20;2.47;;;23.30;99.90;;;;;;5013932;28;20394;-65
2023/09/18 12:28:41;;;;;;;5.43;2.50;;;23.10;99.90;;;;;;5013485;28;20104;-65
2023/09/18 12:31:15;;;;;;;5.75;2.40;;;22.90;99.90;;;;;;5013739;28;20137;-66
2023/09/18 12:33:47;;;;;;;7.07;2.75;;;22.90;99.90;;;;;;4997169;28;20046;-65
2023/09/18 12:36:19;;;;;;;6.45;2.47;;;22.80;99.90;;;;;;5013392;28;20046;-66
2023/09/18 12:38:55;;;;;;;;;;;22.70;99.90;;;;;;4998074;28;20045;-64